Time;durP1;ratioP1;P1;durP2;ratioP2;P2;SDS_P1;SDS_P2;PMS_P1;PMS_P2;Temp;Humidity;BMP_temperature;BMP_pressure;BME280_temperature;BME280_humidity;BME280_pressure;Samples;Min_cycle;Max_cycle;Signal;HPM_P1;HPM_P2
2022/10/20 00:01:06;;;;;;;;;;;;;;;14.18;42.59;99967.91;4452607;32;34431;-91
2022/10/20 00:03:33;;;;;;;;;;;;;;;14.46;41.84;99963.84;4443490;32;32752;-92
2022/10/20 00:06:08;;;;;;;;;;;;;;;14.95;40.87;99956.47;4448845;32;32876;-92
2022/10/20 00:08:35;;;;;;;;;;;;;;;15.12;40.40;99960.97;4446124;32;34085;-94
2022/10/20 00:11:03;;;;;;;;;;;;;;;15.23;40.30;99969.75;4453815;32;34015;-93
2022/10/20 00:13:30;;;;;;;;;;;;;;;15.30;39.96;99966.28;4467181;32;34105;-94
2022/10/20 00:15:58;;;;;;;;;;;;;;;14.92;40.73;99969.50;4434679;32;32768;-94
2022/10/20 00:18:25;;;;;;;;;;;;;;;14.82;40.98;99968.56;4453025;32;33426;-93
2022/10/20 00:20:52;;;;;;;;;;;;;;;14.90;40.62;99962.53;4453344;32;34032;-94
2022/10/20 00:23:20;;;;;;;;;;;;;;;15.69;39.27;99970.91;4453953;32;34815;-92
2022/10/20 00:25:48;;;;;;;;;;;;;;;15.92;39.01;99973.62;4452354;32;34379;-93
2022/10/20 00:28:15;;;;;;;;;;;;;;;15.85;38.88;99978.81;4467706;32;34243;-95
2022/10/20 00:30:42;;;;;;;;;;;;;;;15.90;38.86;99972.72;4453590;32;33810;-93
2022/10/20 00:33:09;;;;;;;;;;;;;;;16.08;38.62;99973.69;4440977;32;34196;-92
2022/10/20 00:35:37;;;;;;;;;;;;;;;16.28;38.46;99975.47;4426965;32;33262;-92
2022/10/20 00:38:05;;;;;;;;;;;;;;;16.51;37.88;99972.91;4437506;32;33307;-93
2022/10/20 00:40:32;;;;;;;;;;;;;;;16.11;38.17;99974.56;4440110;32;32721;-93
2022/10/20 00:42:59;;;;;;;;;;;;;;;16.62;37.27;99974.66;4453355;32;34269;-94
2022/10/20 00:45:27;;;;;;;;;;;;;;;16.47;37.79;99976.38;4452523;32;33075;-93
2022/10/20 00:47:55;;;;;;;;;;;;;;;16.50;37.92;99978.13;4440788;32;32335;-95
2022/10/20 00:50:23;;;;;;;;;;;;;;;16.64;37.42;99973.81;4453142;32;32836;-94
2022/10/20 00:52:51;;;;;;;;;;;;;;;16.17;37.96;99984.16;4440662;32;32924;-94
2022/10/20 00:55:19;;;;;;;;;;;;;;;16.30;38.06;99994.69;4440077;32;31645;-92
2022/10/20 00:57:47;;;;;;;;;;;;;;;16.46;37.61;99984.25;4453247;32;33768;-92
2022/10/20 01:00:15;;;;;;;;;;;;;;;16.46;37.63;99979.00;4440299;32;33463;-93
2022/10/20 01:02:43;;;;;;;;;;;;;;;16.44;37.65;99984.25;4427073;32;32262;-92
2022/10/20 01:05:10;;;;;;;;;;;;;;;16.23;38.04;99984.19;4418312;32;32870;-94
2022/10/20 01:07:38;;;;;;;;;;;;;;;16.44;37.98;99986.88;4427593;32;32792;-94
2022/10/20 01:10:05;;;;;;;;;;;;;;;16.04;38.17;99980.63;4427804;32;34216;-94
2022/10/20 01:12:56;;;;;;;;;;;;;;;16.22;37.79;99982.44;4440729;32;33294;-93
2022/10/20 01:15:43;;;;;;;;;;;;;;;16.30;37.85;99985.97;4417076;32;33544;-93
2022/10/20 01:18:12;;;;;;;;;;;;;;;16.50;37.42;99978.13;4440358;32;34180;-94
2022/10/20 01:20:59;;;;;;;;;;;;;;;16.31;37.85;99985.06;4427585;32;34773;-94
2022/10/20 01:23:30;;;;;;;;;;;;;;;16.30;38.07;99978.09;4439343;32;33705;-92
2022/10/20 01:26:07;;;;;;;;;;;;;;;16.18;37.92;99975.47;4432674;32;32523;-93
2022/10/20 01:28:36;;;;;;;;;;;;;;;16.30;37.81;99971.13;4439765;32;33610;-92
2022/10/20 01:31:07;;;;;;;;;;;;;;;16.62;37.31;99978.16;4427617;32;34363;-93
2022/10/20 01:33:41;;;;;;;;;;;;;;;16.91;36.74;99980.84;4416135;32;33100;-94
2022/10/20 01:36:18;;;;;;;;;;;;;;;16.82;36.99;99974.72;4428069;32;32756;-94
2022/10/20 01:38:45;;;;;;;;;;;;;;;17.14;36.31;99979.94;4427038;32;34161;-94
2022/10/20 01:41:17;;;;;;;;;;;;;;;16.84;36.65;99979.06;4432602;32;33775;-93
2022/10/20 01:43:44;;;;;;;;;;;;;;;16.69;37.07;99984.28;4439038;32;33132;-92
2022/10/20 01:46:11;;;;;;;;;;;;;;;16.70;37.05;99991.25;4440180;32;33975;-93
2022/10/20 01:48:39;;;;;;;;;;;;;;;16.60;37.37;99994.75;4440178;32;32990;-90
2022/10/20 01:51:06;;;;;;;;;;;;;;;16.69;37.27;99987.75;4427113;32;33329;-92
2022/10/20 01:53:33;;;;;;;;;;;;;;;16.65;37.10;99982.53;4426795;32;33385;-91
2022/10/20 01:56:01;;;;;;;;;;;;;;;16.38;37.69;99981.62;4427309;32;33531;-91
2022/10/20 01:58:37;;;;;;;;;;;;;;;16.24;37.94;99991.16;4440138;32;34291;-92
2022/10/20 02:01:10;;;;;;;;;;;;;;;16.33;37.76;99993.81;4439910;32;33332;-93
2022/10/20 02:03:37;;;;;;;;;;;;;;;16.45;37.49;99988.59;4426642;32;33330;-93
2022/10/20 02:06:10;;;;;;;;;;;;;;;16.32;37.39;99981.59;4439428;32;33297;-93
2022/10/20 02:08:44;;;;;;;;;;;;;;;16.11;37.87;99985.03;4413130;32;33418;-93
2022/10/20 02:11:13;;;;;;;;;;;;;;;16.53;37.24;99988.63;4439465;32;34492;-93
2022/10/20 02:13:41;;;;;;;;;;;;;;;16.54;37.28;99990.34;4426716;32;34019;-93
2022/10/20 02:16:10;;;;;;;;;;;;;;;16.67;36.90;99988.66;4439688;32;33147;-92
2022/10/20 02:18:39;;;;;;;;;;;;;;;16.62;37.02;99987.75;4426976;32;34598;-93
2022/10/20 02:21:07;;;;;;;;;;;;;;;16.70;36.82;99986.00;4441019;32;34052;-93
2022/10/20 02:23:35;;;;;;;;;;;;;;;16.84;36.52;99988.69;4438992;32;34202;-92
2022/10/20 02:26:05;;;;;;;;;;;;;;;16.78;36.58;99994.78;4424474;32;33272;-94
2022/10/20 02:28:33;;;;;;;;;;;;;;;16.67;36.65;99996.50;4425320;32;33402;-94
2022/10/20 02:31:01;;;;;;;;;;;;;;;16.39;36.98;100006.03;4426863;32;33752;-95
2022/10/20 02:33:28;;;;;;;;;;;;;;;16.63;36.49;99999.97;4438889;32;32901;-92
2022/10/20 02:35:57;;;;;;;;;;;;;;;16.26;37.37;99999.91;4431099;32;32837;-93
2022/10/20 02:38:24;;;;;;;;;;;;;;;16.20;37.54;100002.50;4427093;32;33612;-93
2022/10/20 02:40:51;;;;;;;;;;;;;;;16.21;37.36;100001.59;4427393;32;33334;-93
2022/10/20 02:43:18;;;;;;;;;;;;;;;16.18;37.46;100004.25;4441026;32;33633;-92
2022/10/20 02:45:46;;;;;;;;;;;;;;;16.10;37.64;100004.22;4440657;32;32969;-93
2022/10/20 02:48:13;;;;;;;;;;;;;;;16.05;37.79;100012.03;4426223;32;33319;-92
2022/10/20 02:50:40;;;;;;;;;;;;;;;16.25;37.28;100011.22;4428383;32;33206;-94
2022/10/20 02:53:08;;;;;;;;;;;;;;;16.18;37.14;100012.97;4428210;32;32993;-92
2022/10/20 02:55:35;;;;;;;;;;;;;;;16.08;37.45;100012.91;4428549;32;32483;-94
2022/10/20 02:58:02;;;;;;;;;;;;;;;15.83;37.75;100012.78;4441738;32;34142;-92
2022/10/20 03:00:30;;;;;;;;;;;;;;;16.09;37.27;100017.28;4428044;32;34927;-93
2022/10/20 03:02:58;;;;;;;;;;;;;;;16.02;37.36;100012.03;4453745;32;33948;-93
2022/10/20 03:05:26;;;;;;;;;;;;;;;16.10;37.39;100014.69;4453325;32;33761;-91
2022/10/20 03:07:53;;;;;;;;;;;;;;;15.99;37.54;100024.22;4447257;32;34964;-94
2022/10/20 03:10:20;;;;;;;;;;;;;;;16.19;36.89;100019.94;4428346;32;33199;-93
2022/10/20 03:12:48;;;;;;;;;;;;;;;15.97;37.38;100018.09;4451779;32;34317;-93
2022/10/20 03:15:15;;;;;;;;;;;;;;;16.00;37.28;100018.97;4441283;32;32121;-93
2022/10/20 03:17:42;;;;;;;;;;;;;;;16.13;37.27;100021.66;4435370;32;34406;-94
2022/10/20 03:20:10;;;;;;;;;;;;;;;16.02;37.22;100019.87;4427466;32;33076;-93
2022/10/20 03:22:37;;;;;;;;;;;;;;;15.80;37.68;100021.50;4434679;32;34022;-96
2022/10/20 03:25:05;;;;;;;;;;;;;;;16.07;37.12;100021.62;4440783;32;32524;-94
2022/10/20 03:27:32;;;;;;;;;;;;;;;15.97;37.35;100024.19;4465711;32;33974;-92
2022/10/20 03:30:01;;;;;;;;;;;;;;;15.75;37.61;100022.34;4467270;32;34333;-92
2022/10/20 03:32:28;;;;;;;;;;;;;;;15.73;37.75;100024.94;4449326;32;33828;-91
2022/10/20 03:34:57;;;;;;;;;;;;;;;15.75;37.68;100022.34;4453793;32;33971;-92
2022/10/20 03:37:24;;;;;;;;;;;;;;;15.73;37.52;100029.31;4441483;32;33757;-91
2022/10/20 03:39:51;;;;;;;;;;;;;;;15.73;37.68;100030.19;4438943;32;33419;-93
2022/10/20 03:42:21;;;;;;;;;;;;;;;15.80;37.76;100031.97;4452761;32;34025;-92
2022/10/20 03:44:49;;;;;;;;;;;;;;;15.70;38.07;100030.16;4456419;32;32532;-92
2022/10/20 03:47:16;;;;;;;;;;;;;;;15.50;38.40;100022.16;4460770;32;34131;-90
2022/10/20 03:49:44;;;;;;;;;;;;;;;15.65;38.02;100028.38;4457751;32;35269;-92
2022/10/20 03:52:11;;;;;;;;;;;;;;;15.66;38.16;100032.75;4467700;32;33406;-93
2022/10/20 03:54:39;;;;;;;;;;;;;;;15.59;38.25;100031.81;4467644;32;32940;-93
2022/10/20 03:57:07;;;;;;;;;;;;;;;15.45;38.49;100026.47;4466551;32;34194;-92
2022/10/20 03:59:34;;;;;;;;;;;;;;;15.52;38.42;100030.87;4453693;32;33885;-91
2022/10/20 04:02:01;;;;;;;;;;;;;;;15.55;38.23;100024.81;4442656;32;33803;-92
2022/10/20 04:04:29;;;;;;;;;;;;;;;15.49;38.31;100027.37;4427567;32;32494;-93
2022/10/20 04:06:56;;;;;;;;;;;;;;;15.78;37.61;100030.19;4427174;32;34317;-92
2022/10/20 04:12:19;;;;;;;;;;;;;;;15.48;38.13;100034.34;4454154;29;20305;-92
2022/10/20 04:15:07;;;;;;;;;;;;;;;15.41;38.42;100029.94;4455415;32;34020;-92
2022/10/20 04:17:35;;;;;;;;;;;;;;;15.48;38.26;100031.72;4445984;32;35148;-93
2022/10/20 04:20:04;;;;;;;;;;;;;;;15.32;38.59;100027.28;4422684;32;34082;-92
2022/10/20 04:22:31;;;;;;;;;;;;;;;15.30;38.62;100027.28;4449529;32;34374;-92
2022/10/20 04:24:58;;;;;;;;;;;;;;;15.30;38.59;100024.66;4449747;32;32716;-91
2022/10/20 04:27:26;;;;;;;;;;;;;;;15.40;38.37;100019.47;4426496;32;33787;-91
2022/10/20 04:29:54;;;;;;;;;;;;;;;15.51;38.11;100028.28;4440227;32;34254;-91
2022/10/20 04:32:21;;;;;;;;;;;;;;;15.48;37.99;100017.78;4452032;32;33150;-90
2022/10/20 04:34:48;;;;;;;;;;;;;;;15.33;38.45;100023.78;4435809;32;32903;-91
2022/10/20 04:37:16;;;;;;;;;;;;;;;15.23;38.57;100030.69;4424984;32;32805;-92
2022/10/20 04:39:43;;;;;;;;;;;;;;;15.32;38.47;100027.28;4452091;32;32698;-92
2022/10/20 04:42:11;;;;;;;;;;;;;;;15.37;38.38;100022.94;4448681;26;34283;-93
2022/10/20 04:44:38;;;;;;;;;;;;;;;15.30;38.54;100019.44;4440752;32;31828;-92
2022/10/20 04:47:05;;;;;;;;;;;;;;;15.35;38.40;100016.84;4461098;32;34929;-93
2022/10/20 04:49:33;;;;;;;;;;;;;;;15.20;38.70;100019.34;4466766;32;35038;-93
2022/10/20 04:52:00;;;;;;;;;;;;;;;15.34;38.51;100017.69;4458915;32;34730;-91
2022/10/20 04:54:27;;;;;;;;;;;;;;;15.03;38.98;100020.06;4468650;32;33204;-92
2022/10/20 04:56:55;;;;;;;;;;;;;;;15.39;38.46;100026.44;4474739;32;34392;-88
2022/10/20 04:59:22;;;;;;;;;;;;;;;15.28;38.57;100022.88;4440937;32;34155;-91
2022/10/20 05:01:49;;;;;;;;;;;;;;;15.37;38.59;100028.16;4453940;32;34913;-90
2022/10/20 05:04:20;;;;;;;;;;;;;;;15.35;38.48;100029.03;4464961;32;33465;-91
2022/10/20 05:06:47;;;;;;;;;;;;;;;15.65;37.82;100030.97;4468362;32;33452;-92
2022/10/20 05:09:15;;;;;;;;;;;;;;;15.27;38.41;100029.84;4467000;32;33956;-92
2022/10/20 05:11:42;;;;;;;;;;;;;;;15.40;38.43;100035.16;4469109;32;33851;-90
2022/10/20 05:14:09;;;;;;;;;;;;;;;15.58;37.80;100046.63;4481974;32;33264;-90
2022/10/20 05:16:37;;;;;;;;;;;;;;;15.48;37.75;100044.78;4467635;32;34347;-91
2022/10/20 05:19:04;;;;;;;;;;;;;;;15.58;37.57;100045.75;4481414;32;34857;-91
2022/10/20 05:21:31;;;;;;;;;;;;;;;15.24;38.23;100052.47;4466493;32;33460;-92
2022/10/20 05:24:02;;;;;;;;;;;;;;;15.47;38.01;100052.62;4467553;32;33075;-92
2022/10/20 05:26:35;;;;;;;;;;;;;;;15.59;37.86;100057.94;4453810;32;33302;-91
2022/10/20 05:29:04;;;;;;;;;;;;;;;15.62;37.72;100057.97;4467672;32;34308;-91
2022/10/20 05:31:35;;;;;;;;;;;;;;;15.62;37.65;100059.72;4469129;32;32924;-91
2022/10/20 05:34:02;;;;;;;;;;;;;;;15.67;37.75;100068.47;4469240;32;34080;-92
2022/10/20 05:36:29;;;;;;;;;;;;;;;15.45;38.11;100070.91;4483726;32;33681;-92
2022/10/20 05:38:57;;;;;;;;;;;;;;;15.54;38.18;100070.97;4442390;32;34031;-92
2022/10/20 05:41:28;;;;;;;;;;;;;;;15.62;38.16;100084.09;4453354;32;33484;-93
2022/10/20 05:44:00;;;;;;;;;;;;;;;15.73;37.80;100087.69;4453932;32;33228;-94
2022/10/20 05:46:29;;;;;;;;;;;;;;;15.56;38.04;100089.28;4440674;32;34056;-93
2022/10/20 05:48:57;;;;;;;;;;;;;;;15.76;37.70;100086.84;4454293;32;34782;-93
2022/10/20 05:51:25;;;;;;;;;;;;;;;15.69;38.35;100098.13;4441982;32;34290;-91
2022/10/20 05:53:56;;;;;;;;;;;;;;;15.37;39.75;100103.06;4453342;32;33405;-92
2022/10/20 05:56:23;;;;;;;;;;;;;;;15.70;39.19;100099.88;4453544;32;33750;-93
2022/10/20 05:58:51;;;;;;;;;;;;;;;15.78;38.65;100106.03;4467229;32;35219;-92
2022/10/20 06:01:22;;;;;;;;;;;;;;;15.61;39.37;100110.22;4453019;32;33656;-92
2022/10/20 06:03:50;;;;;;;;;;;;;;;15.58;39.47;100114.56;4453919;32;33102;-93
2022/10/20 06:06:18;;;;;;;;;;;;;;;15.75;39.57;100111.22;4453226;32;34268;-93
2022/10/20 06:08:45;;;;;;;;;;;;;;;15.60;39.67;100103.25;4453067;32;34174;-92
2022/10/20 06:11:13;;;;;;;;;;;;;;;15.49;40.28;100118.84;4453289;32;34678;-92
2022/10/20 06:13:41;;;;;;;;;;;;;;;15.78;39.81;100121.72;4452940;32;32981;-92
2022/10/20 06:16:12;;;;;;;;;;;;;;;15.53;40.56;100118.91;4439022;32;34152;-92
2022/10/20 06:18:41;;;;;;;;;;;;;;;15.62;40.51;100125.06;4439927;32;35208;-92
2022/10/20 06:21:10;;;;;;;;;;;;;;;15.57;40.65;100128.50;4440337;32;32800;-92
2022/10/20 06:23:37;;;;;;;;;;;;;;;15.56;40.50;100134.56;4453022;32;33757;-92
2022/10/20 06:26:09;;;;;;;;;;;;;;;15.81;40.29;100134.81;4439952;32;33888;-93
2022/10/20 06:28:36;;;;;;;;;;;;;;;15.97;39.95;100141.00;4439860;32;34387;-92
2022/10/20 06:31:10;;;;;;;;;;;;;;;15.91;39.96;100139.25;4439973;32;33477;-92
2022/10/20 06:33:37;;;;;;;;;;;;;;;16.04;39.78;100140.19;4467072;32;33231;-93
2022/10/20 06:36:05;;;;;;;;;;;;;;;15.66;40.99;100147.78;4439756;32;33233;-91
2022/10/20 06:38:32;;;;;;;;;;;;;;;16.04;40.08;100148.03;4440008;32;33351;-92
2022/10/20 06:41:03;;;;;;;;;;;;;;;16.04;40.20;100146.28;4439422;32;34795;-92
2022/10/20 06:43:30;;;;;;;;;;;;;;;16.24;39.29;100148.16;4439539;32;32695;-93
2022/10/20 06:46:02;;;;;;;;;;;;;;;15.85;40.63;100143.56;4427267;32;33748;-93
2022/10/20 06:48:29;;;;;;;;;;;;;;;15.91;40.55;100152.31;4452705;32;34051;-92
2022/10/20 06:51:07;;;;;;;;;;;;;;;16.02;40.31;100150.66;4453015;32;33772;-94
2022/10/20 06:53:35;;;;;;;;;;;;;;;15.52;41.53;100158.94;4452635;32;34027;-92
2022/10/20 06:56:05;;;;;;;;;;;;;;;15.91;40.36;100165.41;4452325;32;34879;-92
2022/10/20 06:58:33;;;;;;;;;;;;;;;16.02;40.58;100163.75;4452635;32;34285;-92
2022/10/20 07:01:07;;;;;;;;;;;;;;;15.70;40.84;100154.78;4452611;32;33444;-93
2022/10/20 07:03:37;;;;;;;;;;;;;;;15.46;41.50;100165.87;4466575;32;34399;-92
2022/10/20 07:06:05;;;;;;;;;;;;;;;15.68;41.48;100167.84;4466663;32;33757;-93
2022/10/20 07:08:33;;;;;;;;;;;;;;;13.87;44.60;100170.88;4452316;32;35253;-93
2022/10/20 07:11:04;;;;;;;;;;;;;;;15.10;42.40;100177.69;4439704;32;33749;-93
2022/10/20 07:13:32;;;;;;;;;;;;;;;14.88;42.79;100184.41;4439511;32;33628;-92
2022/10/20 07:15:59;;;;;;;;;;;;;;;13.89;44.70;100181.31;4464382;32;33901;-92
2022/10/20 07:18:27;;;;;;;;;;;;;;;14.62;43.58;100181.47;4439387;32;33022;-94
2022/10/20 07:20:58;;;;;;;;;;;;;;;14.81;43.16;100182.59;4452262;32;34186;-93
2022/10/20 07:23:25;;;;;;;;;;;;;;;15.35;42.46;100185.81;4452326;32;33202;-93
2022/10/20 07:26:03;;;;;;;;;;;;;;;16.07;40.68;100178.59;4452468;32;34231;-93
2022/10/20 07:28:31;;;;;;;;;;;;;;;16.03;40.49;100186.41;4441742;32;33184;-93
2022/10/20 07:31:05;;;;;;;;;;;;;;;16.05;40.56;100186.41;4454629;32;34494;-93
2022/10/20 07:33:33;;;;;;;;;;;;;;;15.62;41.56;100183.44;4468818;32;33410;-94
2022/10/20 07:36:01;;;;;;;;;;;;;;;15.07;42.63;100194.19;4468640;32;34097;-93
2022/10/20 07:38:28;;;;;;;;;;;;;;;15.70;41.53;100187.00;4468596;32;33811;-94
2022/10/20 07:41:00;;;;;;;;;;;;;;;15.52;41.83;100187.69;4454590;32;33798;-93
2022/10/20 07:43:28;;;;;;;;;;;;;;;15.38;42.07;100191.94;4454490;32;34164;-93
2022/10/20 07:45:55;;;;;;;;;;;;;;;15.61;41.83;100191.25;4454565;32;33678;-93
2022/10/20 07:48:22;;;;;;;;;;;;;;;15.69;41.55;100197.47;4468991;32;33414;-93
2022/10/20 07:50:50;;;;;;;;;;;;;;;15.74;41.36;100203.59;4454385;32;34284;-93
2022/10/20 07:53:17;;;;;;;;;;;;;;;15.58;41.30;100203.44;4467268;32;33951;-93
2022/10/20 07:55:44;;;;;;;;;;;;;;;15.63;41.67;100200.00;4454284;32;34069;-92
2022/10/20 07:58:12;;;;;;;;;;;;;;;15.14;42.56;100199.50;4468311;32;34302;-92
2022/10/20 08:00:39;;;;;;;;;;;;;;;15.64;41.67;100194.75;4454334;32;33882;-91
2022/10/20 08:03:08;;;;;;;;;;;;;;;15.38;41.94;100198.88;4454348;32;32341;-93
2022/10/20 08:05:35;;;;;;;;;;;;;;;15.56;41.97;100202.53;4454357;32;33695;-93
2022/10/20 08:08:03;;;;;;;;;;;;;;;15.75;41.08;100195.75;4454228;32;34733;-92
2022/10/20 08:10:31;;;;;;;;;;;;;;;15.65;41.36;100193.06;4468556;32;34392;-92
2022/10/20 08:12:58;;;;;;;;;;;;;;;15.98;40.64;100188.09;4454349;32;33484;-94
2022/10/20 08:15:25;;;;;;;;;;;;;;;15.64;40.71;100194.75;4454298;32;34127;-92
2022/10/20 08:17:52;;;;;;;;;;;;;;;15.45;40.96;100200.69;4454269;32;34173;-92
2022/10/20 08:20:20;;;;;;;;;;;;;;;14.83;42.58;100204.38;4454087;32;33932;-93
2022/10/20 08:23:03;;;;;;;;;;;;;;;15.25;41.33;100209.19;4455840;32;33337;-93
2022/10/20 08:25:31;;;;;;;;;;;;;;;15.64;40.88;100214.81;4440531;32;34225;-90
2022/10/20 08:27:59;;;;;;;;;;;;;;;15.13;41.97;100213.44;4454006;32;32962;-93
2022/10/20 08:30:26;;;;;;;;;;;;;;;15.01;42.10;100215.03;4454150;32;33425;-93
2022/10/20 08:32:54;;;;;;;;;;;;;;;14.68;42.80;100215.50;4441152;32;32792;-92
2022/10/20 08:35:21;;;;;;;;;;;;;;;15.31;41.87;100214.50;4454457;32;34143;-94
2022/10/20 08:37:49;;;;;;;;;;;;;;;14.79;42.96;100220.88;4453925;32;34877;-93
2022/10/20 08:40:18;;;;;;;;;;;;;;;16.04;40.69;100210.81;4453657;32;33729;-93
2022/10/20 08:42:45;;;;;;;;;;;;;;;15.96;40.33;100210.75;4443695;32;792023;-93
2022/10/20 08:45:14;;;;;;;;;;;;;;;14.87;42.94;100211.38;4454181;32;34909;-93
2022/10/20 08:47:41;;;;;;;;;;;;;;;14.05;45.22;100216.31;4453896;32;34800;-93
2022/10/20 08:50:09;;;;;;;;;;;;;;;15.17;43.27;100220.44;4468074;32;33497;-93
2022/10/20 08:52:38;;;;;;;;;;;;;;;14.87;43.30;100216.59;4454019;32;34149;-92
2022/10/20 08:55:05;;;;;;;;;;;;;;;15.16;43.06;100218.69;4440910;32;33024;-93
2022/10/20 08:57:33;;;;;;;;;;;;;;;15.67;41.91;100217.47;4453905;32;33869;-92
2022/10/20 09:00:14;;;;;;;;;;;;;;;15.49;42.10;100219.06;4454111;32;35147;-93
2022/10/20 09:02:41;;;;;;;;;;;;;;;16.31;41.18;100202.28;4468159;32;33118;-93
2022/10/20 09:05:09;;;;;;;;;;;;;;;16.48;41.26;100213.72;4453949;32;34628;-94
2022/10/20 09:07:41;;;;;;;;;;;;;;;16.29;39.72;100204.03;4453927;32;35022;-94
2022/10/20 09:10:14;;;;;;;;;;;;;;;15.63;41.25;100213.06;4467790;32;34225;-93
2022/10/20 09:12:42;;;;;;;;;;;;;;;15.48;40.24;100209.44;4453674;32;33179;-93
2022/10/20 09:15:10;;;;;;;;;;;;;;;15.93;39.75;100210.72;4466562;32;34119;-93
2022/10/20 09:17:41;;;;;;;;;;;;;;;16.59;39.01;100202.41;4440886;32;33719;-94
2022/10/20 09:20:15;;;;;;;;;;;;;;;17.38;38.06;100201.84;4453724;32;33826;-93
2022/10/20 09:22:42;;;;;;;;;;;;;;;17.31;36.87;100195.69;4453930;32;33292;-93
2022/10/20 09:25:28;;;;;;;;;;;;;;;17.00;37.32;100208.72;4453616;32;34021;-94
2022/10/20 09:27:55;;;;;;;;;;;;;;;16.23;38.82;100206.59;4440519;32;33756;-95
2022/10/20 09:30:29;;;;;;;;;;;;;;;16.01;39.55;100211.66;4441091;32;34903;-94
2022/10/20 09:32:56;;;;;;;;;;;;;;;16.83;37.53;100212.19;4453481;32;33114;-94
2022/10/20 09:35:28;;;;;;;;;;;;;;;16.80;38.58;100212.16;4453526;32;34138;-94
2022/10/20 09:38:14;;;;;;;;;;;;;;;17.18;37.30;100212.28;4453655;32;35200;-93
2022/10/20 09:40:52;;;;;;;;;;;;;;;16.99;37.23;100214.84;4467851;32;34056;-93
2022/10/20 09:43:19;;;;;;;;;;;;;;;16.65;38.48;100212.94;4450751;32;33342;-92
2022/10/20 09:46:07;;;;;;;;;;;;;;;16.59;38.39;100213.75;4438176;32;32711;-92
2022/10/20 09:48:35;;;;;;;;;;;;;;;16.89;37.34;100215.66;4452055;32;34263;-93
2022/10/20 09:51:03;;;;;;;;;;;;;;;17.49;36.38;100210.59;4449386;32;34311;-94
2022/10/20 09:53:30;;;;;;;;;;;;;;;17.44;36.54;100217.59;4450753;32;33996;-92
2022/10/20 09:55:58;;;;;;;;;;;;;;;17.25;36.65;100214.06;4450864;32;34712;-95
2022/10/20 09:58:26;;;;;;;;;;;;;;;17.82;36.57;100208.91;4438073;32;34580;-93
2022/10/20 10:01:00;;;;;;;;;;;;;;;17.18;36.50;100214.91;4463113;32;33827;-93
2022/10/20 10:03:29;;;;;;;;;;;;;;;17.71;35.91;100198.38;4450427;32;33279;-94
2022/10/20 10:05:59;;;;;;;;;;;;;;;17.29;36.58;100205.31;4450717;32;33346;-93
2022/10/20 10:08:29;;;;;;;;;;;;;;;17.60;36.46;100213.22;4450737;32;34549;-94
2022/10/20 10:11:00;;;;;;;;;;;;;;;17.23;37.15;100223.63;4450563;32;33869;-92
2022/10/20 10:13:28;;;;;;;;;;;;;;;17.56;36.77;100221.97;4450567;32;33339;-94
2022/10/20 10:16:14;;;;;;;;;;;;;;;16.97;37.50;100218.31;4450338;32;33699;-94
2022/10/20 10:18:46;;;;;;;;;;;;;;;17.28;37.34;100211.44;4450480;32;34090;-94
2022/10/20 10:21:16;;;;;;;;;;;;;;;17.57;37.15;100208.84;4437865;32;33673;-93
2022/10/20 10:23:51;;;;;;;;;;;;;;;18.01;37.02;100199.28;4450654;32;34726;-94
2022/10/20 10:26:36;;;;;;;;;;;;;;;18.79;34.97;100186.84;4450724;32;34563;-93
2022/10/20 10:29:04;;;;;;;;;;;;;;;18.51;35.34;100190.41;4451529;32;34454;-94
2022/10/20 10:31:31;;;;;;;;;;;;;;;18.32;34.97;100193.09;4450265;32;34839;-93
2022/10/20 10:34:11;;;;;;;;;;;;;;;17.72;36.90;100187.00;4450009;32;33076;-94
2022/10/20 10:36:38;;;;;;;;;;;;;;;16.63;38.46;100193.69;4451473;32;34160;-93
2022/10/20 10:39:08;;;;;;;;;;;;;;;16.93;38.25;100190.38;4449953;32;34353;-94
2022/10/20 10:41:40;;;;;;;;;;;;;;;17.73;37.19;100184.41;4449928;32;34518;-92
2022/10/20 10:44:20;;;;;;;;;;;;;;;17.21;37.39;100178.22;4450456;32;33222;-93
2022/10/20 10:46:53;;;;;;;;;;;;;;;17.56;36.78;100175.63;4451326;32;34101;-93
2022/10/20 10:49:47;;;;;;;;;;;;;;;17.71;37.16;100175.66;4449780;32;35188;-94
2022/10/20 10:52:44;;;;;;;;;;;;;;;18.14;35.54;100167.75;4438081;32;33626;-93
2022/10/20 10:55:15;;;;;;;;;;;;;;;18.64;34.18;100155.37;4435511;32;33328;-93
2022/10/20 10:58:06;;;;;;;;;;;;;;;18.50;34.61;100158.03;4450279;32;34935;-93
2022/10/20 11:00:52;;;;;;;;;;;;;;;18.18;35.19;100158.13;4451174;32;34281;-93
2022/10/20 11:03:27;;;;;;;;;;;;;;;18.32;34.33;100147.59;4438855;32;32851;-93
2022/10/20 11:05:54;;;;;;;;;;;;;;;18.65;34.20;100142.22;4452206;32;33887;-93
2022/10/20 11:08:40;;;;;;;;;;;;;;;17.90;35.03;100128.44;4452274;32;34129;-93
2022/10/20 11:11:21;;;;;;;;;;;;;;;19.35;32.82;100132.19;4451822;32;33804;-93
2022/10/20 11:13:59;;;;;;;;;;;;;;;19.45;32.58;100132.09;4451921;32;34423;-94
2022/10/20 11:16:30;;;;;;;;;;;;;;;19.09;34.01;100133.25;4451772;32;33486;-93
2022/10/20 11:19:00;;;;;;;;;;;;;;;18.84;33.35;100127.28;4439204;32;33546;-94
2022/10/20 11:21:32;;;;;;;;;;;;;;;19.81;32.40;100110.78;4451893;32;33103;-93
2022/10/20 11:24:32;;;;;;;;;;;;;;;20.28;30.92;100120.81;4451863;32;34888;-93
2022/10/20 11:27:09;;;;;;;;;;;;;;;20.25;32.01;100114.72;4434931;32;33761;-94
2022/10/20 11:29:37;;;;;;;;;;;;;;;20.23;30.84;100117.38;4451604;32;33170;-93
2022/10/20 11:32:13;;;;;;;;;;;;;;;19.84;31.49;100103.72;4453140;32;35686;-93
2022/10/20 11:34:40;;;;;;;;;;;;;;;20.03;31.35;100095.63;4453100;32;34732;-92
2022/10/20 11:37:17;;;;;;;;;;;;;;;20.35;30.93;100098.78;4438952;32;32672;-93
2022/10/20 11:39:48;;;;;;;;;;;;;;;21.12;29.06;100084.56;4451906;32;34958;-93
2022/10/20 11:42:22;;;;;;;;;;;;;;;20.95;29.47;100089.22;4453577;32;34272;-94
2022/10/20 11:44:49;;;;;;;;;;;;;;;20.17;30.49;100099.00;4454701;32;33825;-93
2022/10/20 11:47:22;;;;;;;;;;;;;;;20.26;30.39;100090.97;4454632;32;32749;-95
2022/10/20 11:49:49;;;;;;;;;;;;;;;20.12;30.72;100095.56;4468505;32;34264;-93
2022/10/20 11:52:25;;;;;;;;;;;;;;;20.35;30.48;100085.63;4454590;32;34890;-94
2022/10/20 11:54:56;;;;;;;;;;;;;;;20.83;29.42;100071.81;4454360;32;34856;-93
2022/10/20 11:57:30;;;;;;;;;;;;;;;20.04;30.55;100079.84;4468420;32;33387;-92
2022/10/20 12:00:10;;;;;;;;;;;;;;;19.49;31.41;100085.63;4454110;32;33936;-93
2022/10/20 12:02:47;;;;;;;;;;;;;;;18.94;32.68;100081.69;4453943;32;32966;-92
2022/10/20 12:05:14;;;;;;;;;;;;;;;19.34;32.11;100072.59;4468418;32;34199;-92
2022/10/20 12:07:42;;;;;;;;;;;;;;;19.33;31.65;100079.62;4453891;32;32152;-93
2022/10/20 12:10:16;;;;;;;;;;;;;;;18.60;32.96;100080.97;4468441;32;33826;-93
2022/10/20 12:12:44;;;;;;;;;;;;;;;19.37;32.04;100076.09;4453713;32;35171;-93
2022/10/20 12:15:31;;;;;;;;;;;;;;;19.57;31.07;100078.53;4467765;32;33954;-93
2022/10/20 12:18:03;;;;;;;;;;;;;;;19.37;32.00;100076.09;4468248;32;33303;-93
2022/10/20 12:20:30;;;;;;;;;;;;;;;19.67;32.18;100072.34;4454458;32;35024;-92
2022/10/20 12:23:03;;;;;;;;;;;;;;;19.51;31.73;100067.19;4468182;32;34167;-92
2022/10/20 12:25:35;;;;;;;;;;;;;;;19.94;30.88;100070.31;4468081;32;34314;-93
2022/10/20 12:28:23;;;;;;;;;;;;;;;19.84;31.77;100064.25;4454200;32;34038;-93
2022/10/20 12:30:58;;;;;;;;;;;;;;;19.52;31.03;100061.06;4467907;32;34190;-92
2022/10/20 12:33:44;;;;;;;;;;;;;;;19.39;31.82;100048.00;4468182;32;34233;-92
2022/10/20 12:36:17;;;;;;;;;;;;;;;18.85;31.98;100059.84;4468276;32;33814;-93
2022/10/20 12:38:45;;;;;;;;;;;;;;;19.50;32.83;100055.78;4468425;32;33460;-94
2022/10/20 12:41:32;;;;;;;;;;;;;;;19.47;31.19;100049.69;4453794;32;34290;-92
2022/10/20 12:44:06;;;;;;;;;;;;;;;20.49;31.29;100050.31;4441217;32;33753;-93
2022/10/20 12:46:34;;;;;;;;;;;;;;;20.64;29.71;100031.69;4453974;32;33721;-94
2022/10/20 12:49:03;;;;;;;;;;;;;;;20.34;29.63;100040.84;4454086;32;33210;-94
2022/10/20 12:51:40;;;;;;;;;;;;;;;20.49;31.12;100034.50;4454238;32;34608;-93
2022/10/20 12:54:15;;;;;;;;;;;;;;;20.18;30.07;100027.00;4453865;32;34312;-93
2022/10/20 12:56:42;;;;;;;;;;;;;;;19.80;30.39;100024.84;4453929;32;34797;-94